createdAt,value
2022-10-15T00:00:44.231Z,99315.59
2022-10-15T00:03:11.615Z,99315.59
2022-10-15T00:05:39.440Z,99318.34
2022-10-15T00:08:06.821Z,99315.28
2022-10-15T00:10:34.592Z,99322.44
2022-10-15T00:15:35.927Z,99321.66
2022-10-15T00:18:03.076Z,99308.91
2022-10-15T00:20:30.283Z,99320.44
2022-10-15T00:22:57.693Z,99323.03
2022-10-15T00:25:25.046Z,99317.63
2022-10-15T00:27:52.145Z,99314.78
2022-10-15T00:30:19.534Z,99314.44
2022-10-15T00:32:46.649Z,99311.47
2022-10-15T00:35:13.768Z,99317.94
2022-10-15T00:37:41.187Z,99301.16
2022-10-15T00:40:09.633Z,99304.50
2022-10-15T00:42:36.743Z,99299.31
2022-10-15T00:45:04.216Z,99307.34
2022-10-15T00:47:41.180Z,99297.41
2022-10-15T00:50:08.569Z,99300.66
2022-10-15T00:52:48.952Z,99295.13
2022-10-15T00:55:19.471Z,99288.22
2022-10-15T00:57:47.182Z,99282.03
2022-10-15T01:00:17.401Z,99299.78
2022-10-15T01:02:44.773Z,99290.06
2022-10-15T01:05:12.792Z,99287.63
2022-10-15T01:07:40.465Z,99289.06
2022-10-15T01:10:08.077Z,99282.84
2022-10-15T01:12:38.152Z,99278.63
2022-10-15T01:15:05.277Z,99276.66
2022-10-15T01:17:36.334Z,99273.38
2022-10-15T01:20:13.685Z,99282.47
2022-10-15T01:22:47.122Z,99284.56
2022-10-15T01:25:14.206Z,99283.44
2022-10-15T01:27:42.342Z,99279.63
2022-10-15T01:30:22.672Z,99281.91
2022-10-15T01:32:54.804Z,99282.22
2022-10-15T01:35:29.215Z,99277.53
2022-10-15T01:37:56.867Z,99272.06
2022-10-15T01:40:27.472Z,99271.44
2022-10-15T01:42:56.528Z,99275.88
2022-10-15T01:45:50.329Z,99268.50
2022-10-15T01:48:17.573Z,99266.53
2022-10-15T01:50:46.550Z,99274.53
2022-10-15T01:53:15.664Z,99278.50
2022-10-15T01:55:42.913Z,99268.59
2022-10-15T01:58:10.409Z,99263.34
2022-10-15T02:00:37.822Z,99270.47
2022-10-15T02:03:05.264Z,99277.53
2022-10-15T02:05:34.285Z,99278.47
2022-10-15T02:08:10.975Z,99273.25
2022-10-15T02:10:57.109Z,99272.94
2022-10-15T02:13:33.495Z,99274.88
2022-10-15T02:16:27.315Z,99268.59
2022-10-15T02:19:06.565Z,99271.16
2022-10-15T02:21:45.054Z,99273.97
2022-10-15T02:24:14.229Z,99278.16
2022-10-15T02:26:41.829Z,99272.88
2022-10-15T02:29:10.698Z,99273.84
2022-10-15T02:31:38.144Z,99271.28
2022-10-15T02:34:07.185Z,99263.34
2022-10-15T02:36:36.513Z,99259.03
2022-10-15T02:39:05.030Z,99263.56
2022-10-15T02:41:34.247Z,99262.69
2022-10-15T02:44:02.315Z,99255.59
2022-10-15T02:46:29.951Z,99247.03
2022-10-15T02:48:57.593Z,99251.38
2022-10-15T02:51:24.995Z,99253.94
2022-10-15T02:53:52.796Z,99260.94
2022-10-15T02:56:20.382Z,99253.22
2022-10-15T02:58:47.790Z,99252.19
2022-10-15T03:01:14.937Z,99248.81
2022-10-15T03:03:42.390Z,99250.53
2022-10-15T03:06:09.547Z,99240.13
2022-10-15T03:08:36.867Z,99241.66
2022-10-15T03:11:04.458Z,99237.69
2022-10-15T03:13:31.937Z,99232.19
2022-10-15T03:15:59.101Z,99235.00
2022-10-15T03:18:26.601Z,99245.63
2022-10-15T03:20:54.851Z,99246.09
2022-10-15T03:23:22.205Z,99243.03
2022-10-15T03:25:52.230Z,99235.31
2022-10-15T03:28:22.120Z,99235.47
2022-10-15T03:30:49.755Z,99234.50
2022-10-15T03:33:17.787Z,99234.59
2022-10-15T03:35:45.971Z,99238.37
2022-10-15T03:38:13.566Z,99250.28
2022-10-15T03:40:41.119Z,99241.59
2022-10-15T03:43:09.805Z,99252.38
2022-10-15T03:45:37.348Z,99258.03
2022-10-15T03:48:04.897Z,99252.38
2022-10-15T03:50:33.172Z,99246.09
2022-10-15T03:53:03.105Z,99242.56
2022-10-15T03:55:30.527Z,99240.78
2022-10-15T03:57:57.720Z,99240.06
2022-10-15T04:00:25.349Z,99250.50
2022-10-15T04:02:54.467Z,99247.94
2022-10-15T04:05:22.312Z,99243.69
2022-10-15T04:07:49.770Z,99238.66
2022-10-15T04:10:18.857Z,99237.78
2022-10-15T04:12:46.005Z,99227.94
2022-10-15T04:15:14.462Z,99224.59
2022-10-15T04:17:44.489Z,99231.03
2022-10-15T04:20:12.287Z,99233.41
2022-10-15T04:22:42.780Z,99233.50
2022-10-15T04:25:10.229Z,99229.91
2022-10-15T04:27:37.356Z,99231.78
2022-10-15T04:30:05.375Z,99241.56
2022-10-15T04:32:33.113Z,99245.91
2022-10-15T04:35:00.962Z,99245.91
2022-10-15T04:37:32.981Z,99246.69
2022-10-15T04:40:00.396Z,99250.12
2022-10-15T04:42:28.881Z,99249.97
2022-10-15T04:44:56.650Z,99254.09
2022-10-15T04:47:24.362Z,99253.41
2022-10-15T04:49:51.945Z,99244.19
2022-10-15T04:52:22.363Z,99247.63
2022-10-15T04:54:49.971Z,99239.87
2022-10-15T04:57:18.689Z,99246.00
2022-10-15T04:59:45.818Z,99242.41
2022-10-15T05:02:15.819Z,99239.87
2022-10-15T05:04:43.185Z,99247.63
2022-10-15T05:07:10.575Z,99243.31
2022-10-15T05:09:39.930Z,99251.81
2022-10-15T05:12:10.863Z,99255.97
2022-10-15T05:14:38.280Z,99246.97
2022-10-15T05:17:05.622Z,99249.97
2022-10-15T05:19:35.009Z,99257.28
2022-10-15T05:22:02.857Z,99249.19
2022-10-15T05:24:31.105Z,99255.41
2022-10-15T05:26:58.776Z,99257.69
2022-10-15T05:29:27.591Z,99250.84
2022-10-15T05:31:55.109Z,99258.50
2022-10-15T05:34:23.449Z,99260.00
2022-10-15T05:36:51.073Z,99245.41
2022-10-15T05:39:18.216Z,99248.69
2022-10-15T05:41:45.434Z,99241.53
2022-10-15T05:44:13.913Z,99243.41
2022-10-15T05:46:41.033Z,99243.19
2022-10-15T05:49:08.210Z,99242.09
2022-10-15T05:51:39.165Z,99249.97
2022-10-15T05:54:08.035Z,99249.00
2022-10-15T05:56:35.467Z,99252.47
2022-10-15T05:59:03.584Z,99254.91
2022-10-15T06:01:30.695Z,99249.91
2022-10-15T06:03:58.088Z,99249.91
2022-10-15T06:06:26.584Z,99247.50
2022-10-15T06:08:53.855Z,99256.91
2022-10-15T06:11:21.315Z,99270.03
2022-10-15T06:13:48.445Z,99267.84
2022-10-15T06:16:19.295Z,99274.09
2022-10-15T06:18:50.131Z,99279.91
2022-10-15T06:21:17.299Z,99278.75
2022-10-15T06:23:45.610Z,99284.72
2022-10-15T06:26:13.008Z,99285.50
2022-10-15T06:28:42.001Z,99286.50
2022-10-15T06:31:09.151Z,99293.81
2022-10-15T06:33:36.539Z,99290.16
2022-10-15T06:36:04.462Z,99294.75
2022-10-15T06:38:31.832Z,99298.34
2022-10-15T06:40:59.254Z,99288.59
2022-10-15T06:43:28.726Z,99290.69
2022-10-15T06:45:58.720Z,99295.28
2022-10-15T06:48:25.861Z,99302.69
2022-10-15T06:50:52.963Z,99314.28
2022-10-15T06:53:20.350Z,99315.66
2022-10-15T06:55:47.455Z,99312.09
2022-10-15T06:58:14.612Z,99310.16
2022-10-15T07:00:42.000Z,99325.50
2022-10-15T07:03:09.121Z,99323.84
2022-10-15T07:05:36.243Z,99328.00
2022-10-15T07:08:03.661Z,99324.63
2022-10-15T07:10:30.859Z,99334.16
2022-10-15T07:13:01.202Z,99320.59
2022-10-15T07:15:28.992Z,99323.25
2022-10-15T07:18:01.679Z,99327.03
2022-10-15T07:20:29.430Z,99317.72
2022-10-15T07:22:58.794Z,99318.28
2022-10-15T07:25:29.509Z,99323.53
2022-10-15T07:27:57.198Z,99322.28
2022-10-15T07:30:27.304Z,99317.16
2022-10-15T07:32:57.993Z,99312.03
2022-10-15T07:35:25.950Z,99308.34
2022-10-15T07:37:53.074Z,99305.53
2022-10-15T07:40:20.230Z,99310.62
2022-10-15T07:42:54.481Z,99310.19
2022-10-15T07:45:22.437Z,99313.22
2022-10-15T07:47:49.918Z,99320.19
2022-10-15T07:50:17.039Z,99317.41
2022-10-15T07:52:44.910Z,99321.63
2022-10-15T07:55:12.299Z,99323.22
2022-10-15T07:57:39.399Z,99316.72
2022-10-15T08:00:06.833Z,99310.16
2022-10-15T08:02:40.054Z,99324.16
2022-10-15T08:05:07.563Z,99330.66
2022-10-15T08:07:34.720Z,99323.22
2022-10-15T08:10:06.443Z,99326.50
2022-10-15T08:12:33.934Z,99340.72
2022-10-15T08:15:01.071Z,99341.72
2022-10-15T08:17:28.190Z,99334.53
2022-10-15T08:19:55.603Z,99335.06
2022-10-15T08:22:22.965Z,99343.31
2022-10-15T08:24:53.162Z,99335.34
2022-10-15T08:27:23.473Z,99340.19
2022-10-15T08:29:51.294Z,99336.94
2022-10-15T08:32:18.426Z,99331.44
2022-10-15T08:34:45.828Z,99333.94
2022-10-15T08:39:44.959Z,99343.16
2022-10-15T08:42:15.275Z,99345.37
2022-10-15T08:44:46.436Z,99339.84
2022-10-15T08:47:23.240Z,99349.69
2022-10-15T08:50:10.838Z,99343.88
2022-10-15T08:52:44.148Z,99339.84
2022-10-15T08:55:17.651Z,99343.59
2022-10-15T08:57:57.632Z,99328.16
2022-10-15T09:00:25.547Z,99346.19
2022-10-15T09:02:52.909Z,99341.06
2022-10-15T09:05:23.067Z,99342.09
2022-10-15T09:08:13.184Z,99333.78
2022-10-15T09:10:43.258Z,99328.84
2022-10-15T09:13:16.398Z,99337.28
2022-10-15T09:16:04.907Z,99344.97
2022-10-15T09:18:32.755Z,99346.81
2022-10-15T09:21:00.380Z,99350.41
2022-10-15T09:23:29.762Z,99348.72
2022-10-15T09:26:29.662Z,99351.75
2022-10-15T09:28:59.156Z,99360.03
2022-10-15T09:31:28.395Z,99360.41
2022-10-15T09:34:01.592Z,99365.81
2022-10-15T09:36:31.907Z,99365.41
2022-10-15T09:39:01.886Z,99356.91
2022-10-15T09:41:36.269Z,99362.00
2022-10-15T09:44:05.679Z,99359.97
2022-10-15T09:46:45.758Z,99356.41
2022-10-15T09:49:18.890Z,99345.69
2022-10-15T09:51:53.332Z,99358.00
2022-10-15T09:54:26.254Z,99356.84
2022-10-15T09:56:54.417Z,99347.63
2022-10-15T09:59:22.346Z,99340.63
2022-10-15T10:01:57.195Z,99346.03
2022-10-15T10:04:26.219Z,99344.34
2022-10-15T10:06:54.800Z,99350.59
2022-10-15T10:09:34.371Z,99347.69
2022-10-15T10:12:02.699Z,99348.53
2022-10-15T10:14:31.775Z,99344.31
2022-10-15T10:17:05.075Z,99330.09
2022-10-15T10:19:32.497Z,99335.03
2022-10-15T10:22:19.904Z,99342.41
2022-10-15T10:24:47.569Z,99342.62
2022-10-15T10:27:19.372Z,99328.59
2022-10-15T10:29:54.623Z,99327.28
2022-10-15T10:32:31.820Z,99323.91
2022-10-15T10:34:59.695Z,99327.59
2022-10-15T10:37:27.499Z,99322.53
2022-10-15T10:39:56.038Z,99319.06
2022-10-15T10:42:28.248Z,99311.78
2022-10-15T10:44:55.361Z,99307.25
2022-10-15T10:47:26.990Z,99325.13
2022-10-15T10:49:56.495Z,99307.69
2022-10-15T10:52:33.699Z,99308.06
2022-10-15T10:55:17.747Z,99297.13
2022-10-15T10:57:44.969Z,99314.78
2022-10-15T11:00:13.844Z,99306.72
2022-10-15T11:02:44.038Z,99305.59
2022-10-15T11:05:14.229Z,99301.69
2022-10-15T11:07:45.105Z,99303.38
2022-10-15T11:10:35.610Z,99298.91
2022-10-15T11:13:05.917Z,99300.09
2022-10-15T11:15:37.282Z,99290.44
2022-10-15T11:18:04.665Z,99292.75
2022-10-15T11:20:49.861Z,99287.91
2022-10-15T11:23:27.711Z,99292.41
2022-10-15T11:25:59.242Z,99277.44
2022-10-15T11:28:26.618Z,99270.53
2022-10-15T11:31:03.510Z,99259.38
2022-10-15T11:33:30.863Z,99259.34
2022-10-15T11:36:16.430Z,99265.00
2022-10-15T11:39:02.729Z,99249.13
2022-10-15T11:41:50.345Z,99250.94
2022-10-15T11:44:24.765Z,99246.87
2022-10-15T11:46:59.739Z,99242.94
2022-10-15T11:52:05.020Z,99244.72
2022-10-15T11:54:32.361Z,99243.09
2022-10-15T11:57:01.437Z,99239.81
2022-10-15T11:59:40.941Z,99250.75
2022-10-15T12:02:15.852Z,99244.38
2022-10-15T12:04:59.741Z,99253.13
2022-10-15T12:07:32.788Z,99248.09
2022-10-15T12:10:20.379Z,99243.38
2022-10-15T12:12:49.982Z,99236.00
2022-10-15T12:15:21.215Z,99234.97
2022-10-15T12:17:48.256Z,99234.31
2022-10-15T12:20:16.440Z,99235.69
2022-10-15T12:22:46.910Z,99226.00
2022-10-15T12:25:32.489Z,99231.37
2022-10-15T12:28:00.548Z,99222.34
2022-10-15T12:30:28.340Z,99224.47
2022-10-15T12:32:55.465Z,99227.00
2022-10-15T12:35:43.060Z,99223.31
2022-10-15T12:38:10.981Z,99225.94
2022-10-15T12:40:38.465Z,99225.31
2022-10-15T12:43:17.808Z,99226.19
2022-10-15T12:45:54.344Z,99221.31
2022-10-15T12:48:23.969Z,99211.66
2022-10-15T12:50:51.359Z,99211.00
2022-10-15T12:53:24.498Z,99210.16
2022-10-15T12:56:10.237Z,99216.81
2022-10-15T12:58:44.372Z,99209.75
2022-10-15T13:01:14.880Z,99213.09
2022-10-15T13:03:51.250Z,99207.97
2022-10-15T13:06:21.838Z,99216.41
2022-10-15T13:08:48.873Z,99211.13
2022-10-15T13:11:25.616Z,99206.81
2022-10-15T13:13:53.381Z,99227.81
2022-10-15T13:16:20.521Z,99228.50
2022-10-15T13:18:51.460Z,99227.94
2022-10-15T13:21:18.883Z,99221.81
2022-10-15T13:23:47.133Z,99215.84
2022-10-15T13:26:21.475Z,99218.53
2022-10-15T13:28:49.681Z,99220.94
2022-10-15T13:31:24.672Z,99215.37
2022-10-15T13:34:02.955Z,99220.59
2022-10-15T13:36:31.093Z,99223.22
2022-10-15T13:39:09.204Z,99222.59
2022-10-15T13:41:37.288Z,99216.19
2022-10-15T13:44:04.735Z,99221.41
2022-10-15T13:46:33.741Z,99216.84
2022-10-15T13:49:01.867Z,99230.53
2022-10-15T13:51:32.297Z,99220.22
2022-10-15T13:53:59.455Z,99228.38
2022-10-15T13:56:27.746Z,99225.22
2022-10-15T13:58:55.162Z,99223.59
2022-10-15T14:01:22.781Z,99224.44
2022-10-15T14:03:54.147Z,99228.81
2022-10-15T14:06:22.413Z,99224.28
2022-10-15T14:08:57.444Z,99215.63
2022-10-15T14:11:24.671Z,99209.72
2022-10-15T14:13:53.023Z,99211.84
2022-10-15T14:16:38.888Z,99207.94
2022-10-15T14:19:06.624Z,99220.84
2022-10-15T14:21:34.324Z,99215.31
2022-10-15T14:24:11.535Z,99211.66
2022-10-15T14:26:39.324Z,99213.06
2022-10-15T14:29:06.772Z,99214.56
2022-10-15T14:31:33.857Z,99207.75
2022-10-15T14:34:01.287Z,99198.91
2022-10-15T14:36:29.678Z,99198.78
2022-10-15T14:38:57.420Z,99199.22
2022-10-15T14:41:26.544Z,99195.88
2022-10-15T14:44:15.652Z,99199.97
2022-10-15T14:46:44.088Z,99193.34
2022-10-15T14:49:15.356Z,99189.88
2022-10-15T14:51:42.737Z,99198.19
2022-10-15T14:54:13.053Z,99199.72
2022-10-15T14:56:40.187Z,99199.69
2022-10-15T14:59:13.503Z,99201.25
2022-10-15T15:01:40.661Z,99198.25
2022-10-15T15:04:27.961Z,99204.00
2022-10-15T15:06:55.082Z,99209.25
2022-10-15T15:09:22.508Z,99210.47
2022-10-15T15:11:49.658Z,99204.44
2022-10-15T15:14:19.336Z,99210.94
2022-10-15T15:16:46.743Z,99208.72
2022-10-15T15:19:13.864Z,99213.59
2022-10-15T15:21:41.002Z,99222.94
2022-10-15T15:24:08.743Z,99222.47
2022-10-15T15:26:35.875Z,99228.88
2022-10-15T15:29:03.046Z,99220.03
2022-10-15T15:31:33.741Z,99219.25
2022-10-15T15:34:01.861Z,99222.50
2022-10-15T15:36:28.995Z,99225.53
2022-10-15T15:38:58.913Z,99227.94
2022-10-15T15:41:26.123Z,99234.31
2022-10-15T15:43:54.928Z,99230.91
2022-10-15T15:46:22.315Z,99229.72
2022-10-15T15:48:49.429Z,99238.63
2022-10-15T15:51:26.197Z,99242.75
2022-10-15T15:53:53.626Z,99235.22
2022-10-15T15:56:21.045Z,99240.88
2022-10-15T15:58:50.303Z,99240.38
2022-10-15T16:01:18.111Z,99246.34
2022-10-15T16:03:45.671Z,99245.06
2022-10-15T16:06:13.393Z,99248.94
2022-10-15T16:08:40.524Z,99245.44
2022-10-15T16:11:07.920Z,99251.03
2022-10-15T16:13:35.280Z,99255.69
2022-10-15T16:16:02.396Z,99258.19
2022-10-15T16:18:29.879Z,99253.16
2022-10-15T16:20:57.018Z,99264.09
2022-10-15T16:23:24.133Z,99257.66
2022-10-15T16:25:51.896Z,99266.63
2022-10-15T16:28:19.112Z,99266.41
2022-10-15T16:30:46.247Z,99272.81
2022-10-15T16:33:13.622Z,99274.47
2022-10-15T16:35:40.735Z,99272.13
2022-10-15T16:38:08.320Z,99287.22
2022-10-15T16:40:35.744Z,99290.69
2022-10-15T16:43:02.957Z,99282.03
2022-10-15T16:45:30.079Z,99290.81
2022-10-15T16:47:57.468Z,99287.16
2022-10-15T16:50:24.622Z,99293.13
2022-10-15T16:52:51.835Z,99294.09
2022-10-15T16:55:19.220Z,99299.69
2022-10-15T16:57:46.345Z,99307.41
2022-10-15T17:00:13.622Z,99307.03
2022-10-15T17:02:41.009Z,99315.53
2022-10-15T17:05:08.315Z,99317.72
2022-10-15T17:07:36.173Z,99322.78
2022-10-15T17:10:04.033Z,99323.84
2022-10-15T17:12:31.157Z,99327.91
2022-10-15T17:14:58.256Z,99322.34
2022-10-15T17:17:25.682Z,99326.62
2022-10-15T17:19:52.819Z,99327.63
2022-10-15T17:22:21.121Z,99333.41
2022-10-15T17:24:51.675Z,99327.81
2022-10-15T17:27:19.046Z,99328.09
2022-10-15T17:29:46.199Z,99331.53
2022-10-15T17:32:13.568Z,99322.63
2022-10-15T17:34:41.212Z,99336.53
2022-10-15T17:37:08.796Z,99334.75
2022-10-15T17:39:37.294Z,99333.72
2022-10-15T17:42:04.659Z,99344.13
2022-10-15T17:44:32.144Z,99340.00
2022-10-15T17:46:59.588Z,99347.09
2022-10-15T17:49:28.138Z,99349.00
2022-10-15T17:51:55.319Z,99351.75
2022-10-15T17:54:22.735Z,99357.12
2022-10-15T17:56:50.218Z,99355.44
2022-10-15T17:59:18.221Z,99356.53
2022-10-15T18:01:57.930Z,99355.31
2022-10-15T18:04:27.075Z,99356.78
2022-10-15T18:06:54.582Z,99354.19
2022-10-15T18:09:24.648Z,99354.84
2022-10-15T18:11:55.568Z,99354.69
2022-10-15T18:14:28.300Z,99362.59
2022-10-15T18:16:55.804Z,99365.31
2022-10-15T18:19:23.202Z,99364.41
2022-10-15T18:21:50.505Z,99364.66
2022-10-15T18:24:22.344Z,99368.56
2022-10-15T18:26:50.195Z,99367.13
2022-10-15T18:29:18.088Z,99374.06
2022-10-15T18:31:47.509Z,99380.69
2022-10-15T18:34:18.073Z,99378.88
2022-10-15T18:36:46.286Z,99383.19
2022-10-15T18:39:13.723Z,99385.94
2022-10-15T18:41:41.126Z,99382.59
2022-10-15T18:44:13.976Z,99388.91
2022-10-15T18:46:42.662Z,99381.81
2022-10-15T18:49:10.520Z,99374.44
2022-10-15T18:51:37.932Z,99381.16
2022-10-15T18:54:07.410Z,99382.16
2022-10-15T18:56:35.289Z,99374.91
2022-10-15T18:59:02.681Z,99371.94
2022-10-15T19:01:31.163Z,99372.25
2022-10-15T19:03:59.747Z,99371.69
2022-10-15T19:06:29.105Z,99376.44
2022-10-15T19:08:57.559Z,99386.50
2022-10-15T19:11:28.275Z,99388.69
2022-10-15T19:13:58.962Z,99386.34
2022-10-15T19:16:27.120Z,99393.81
2022-10-15T19:18:57.002Z,99395.53
2022-10-15T19:21:24.683Z,99399.94
2022-10-15T19:23:52.083Z,99398.47
2022-10-15T19:26:19.336Z,99386.88
2022-10-15T19:28:47.034Z,99392.56
2022-10-15T19:31:24.461Z,99398.91
2022-10-15T19:33:51.608Z,99400.50
2022-10-15T19:36:23.112Z,99412.25
2022-10-15T19:38:50.349Z,99416.88
2022-10-15T19:41:17.978Z,99418.81
2022-10-15T19:43:45.906Z,99411.59
2022-10-15T19:46:13.663Z,99420.72
2022-10-15T19:48:42.061Z,99415.94
2022-10-15T19:51:09.506Z,99409.38
2022-10-15T19:53:36.777Z,99417.97
2022-10-15T19:56:05.080Z,99418.81
2022-10-15T19:58:32.716Z,99428.91
2022-10-15T20:01:01.640Z,99426.34
2022-10-15T20:03:29.903Z,99440.28
2022-10-15T20:05:59.570Z,99442.06
2022-10-15T20:08:27.124Z,99435.06
2022-10-15T20:10:54.785Z,99445.56
2022-10-15T20:13:22.504Z,99440.44
2022-10-15T20:15:50.468Z,99448.94
2022-10-15T20:18:17.944Z,99440.25
2022-10-15T20:20:45.781Z,99441.66
2022-10-15T20:23:14.634Z,99443.72
2022-10-15T20:25:42.712Z,99447.91
2022-10-15T20:28:10.630Z,99456.03
2022-10-15T20:30:38.200Z,99450.81
2022-10-15T20:33:06.324Z,99451.16
2022-10-15T20:35:34.624Z,99449.66
2022-10-15T20:38:02.184Z,99453.44
2022-10-15T20:40:29.812Z,99460.34
2022-10-15T20:42:56.941Z,99463.69
2022-10-15T20:45:24.071Z,99471.44
2022-10-15T20:50:36.255Z,99472.88
2022-10-15T20:53:03.654Z,99477.44
2022-10-15T20:55:30.870Z,99478.31
2022-10-15T20:57:58.038Z,99475.53
2022-10-15T21:00:25.552Z,99486.12
2022-10-15T21:02:52.681Z,99480.53
2022-10-15T21:05:19.823Z,99474.66
2022-10-15T21:07:47.223Z,99475.69
2022-10-15T21:10:14.330Z,99478.38
2022-10-15T21:12:41.482Z,99479.34
2022-10-15T21:15:08.963Z,99485.34
2022-10-15T21:17:36.071Z,99482.06
2022-10-15T21:20:03.239Z,99478.84
2022-10-15T21:22:30.647Z,99484.63
2022-10-15T21:24:57.761Z,99491.37
2022-10-15T21:27:25.171Z,99475.44
2022-10-15T21:29:52.761Z,99477.72
2022-10-15T21:32:19.867Z,99480.72
2022-10-15T21:34:46.982Z,99483.59
2022-10-15T21:37:14.379Z,99480.44
2022-10-15T21:42:08.390Z,99478.19
2022-10-15T21:44:35.761Z,99479.91
2022-10-15T21:47:05.128Z,99478.31
2022-10-15T21:49:32.252Z,99476.91
2022-10-15T21:51:59.660Z,99482.59
2022-10-15T21:54:26.829Z,99495.28
2022-10-15T21:56:53.934Z,99487.38
2022-10-15T21:59:21.304Z,99496.47
2022-10-15T22:01:48.576Z,99496.03
2022-10-15T22:04:15.987Z,99497.69
2022-10-15T22:06:43.162Z,99500.09
2022-10-15T22:09:10.480Z,99507.84
2022-10-15T22:11:39.470Z,99513.47
2022-10-15T22:14:07.666Z,99508.00
2022-10-15T22:16:35.426Z,99505.72
2022-10-15T22:19:03.307Z,99504.87
2022-10-15T22:21:31.408Z,99515.16
2022-10-15T22:24:00.133Z,99500.25
2022-10-15T22:26:28.698Z,99502.62
2022-10-15T22:28:56.645Z,99508.41
2022-10-15T22:31:23.838Z,99509.28
2022-10-15T22:33:51.285Z,99515.09
2022-10-15T22:36:22.560Z,99510.84
2022-10-15T22:38:52.529Z,99504.94
2022-10-15T22:41:19.945Z,99513.66
2022-10-15T22:43:47.142Z,99506.53
2022-10-15T22:46:14.349Z,99512.03
2022-10-15T22:48:41.896Z,99516.44
2022-10-15T22:51:10.223Z,99518.41
2022-10-15T22:53:37.557Z,99525.66
2022-10-15T22:56:05.976Z,99523.53
2022-10-15T22:58:33.247Z,99523.88
2022-10-15T23:01:13.877Z,99528.56
2022-10-15T23:03:41.991Z,99519.44
2022-10-15T23:06:09.196Z,99530.63
2022-10-15T23:08:36.314Z,99531.13
2022-10-15T23:11:14.645Z,99526.59
2022-10-15T23:13:42.081Z,99529.81
2022-10-15T23:16:19.633Z,99533.03
2022-10-15T23:18:46.992Z,99543.84
2022-10-15T23:21:18.081Z,99533.59
2022-10-15T23:23:45.363Z,99527.09
2022-10-15T23:26:15.835Z,99532.91
2022-10-15T23:28:44.311Z,99537.16
2022-10-15T23:31:15.180Z,99535.19
2022-10-15T23:33:42.595Z,99543.09
2022-10-15T23:36:09.749Z,99553.56
2022-10-15T23:38:36.860Z,99552.91
2022-10-15T23:41:05.275Z,99553.25
2022-10-15T23:43:32.538Z,99545.13
2022-10-15T23:46:00.529Z,99555.66
2022-10-15T23:48:28.043Z,99561.78
2022-10-15T23:50:59.386Z,99555.44
2022-10-15T23:53:31.065Z,99558.22
2022-10-15T23:55:58.202Z,99569.75
2022-10-15T23:58:25.327Z,99563.06
